createdAt,value
2023-04-16T00:00:14.265Z,100173.84
2023-04-16T00:02:45.164Z,100169.16
2023-04-16T00:05:16.281Z,100173.80
2023-04-16T00:07:46.996Z,100178.19
2023-04-16T00:10:17.679Z,100178.79
2023-04-16T00:12:48.597Z,100175.95
2023-04-16T00:15:19.355Z,100176.09
2023-04-16T00:17:50.090Z,100178.52
2023-04-16T00:20:21.520Z,100179.00
2023-04-16T00:22:52.230Z,100184.45
2023-04-16T00:25:23.201Z,100185.91
2023-04-16T00:27:54.011Z,100187.83
2023-04-16T00:30:24.834Z,100190.20
2023-04-16T00:32:55.657Z,100190.05
2023-04-16T00:35:26.665Z,100192.92
2023-04-16T00:37:57.325Z,100194.45
2023-04-16T00:40:30.022Z,100195.21
2023-04-16T00:43:00.811Z,100199.40
2023-04-16T00:45:31.570Z,100204.27
2023-04-16T00:48:04.216Z,100202.06
2023-04-16T00:50:36.091Z,100199.71
2023-04-16T00:53:07.326Z,100199.70
2023-04-16T00:55:38.326Z,100198.48
2023-04-16T00:58:09.219Z,100202.23
2023-04-16T01:00:39.971Z,100200.91
2023-04-16T01:03:12.327Z,100205.08
2023-04-16T01:05:43.873Z,100200.23
2023-04-16T01:08:20.053Z,100202.20
2023-04-16T01:10:50.865Z,100201.48
2023-04-16T01:13:21.665Z,100202.14
2023-04-16T01:15:52.435Z,100204.50
2023-04-16T01:18:24.302Z,100201.92
2023-04-16T01:20:55.412Z,100204.05
2023-04-16T01:23:26.569Z,100204.33
2023-04-16T01:25:57.866Z,100202.08
2023-04-16T01:28:28.529Z,100201.84
2023-04-16T01:30:59.404Z,100207.55
2023-04-16T01:33:48.773Z,100210.36
2023-04-16T01:36:19.590Z,100212.10
2023-04-16T01:38:51.104Z,100211.10
2023-04-16T01:41:21.695Z,100211.82
2023-04-16T01:43:52.529Z,100214.09
2023-04-16T01:46:28.756Z,100210.71
2023-04-16T01:49:00.033Z,100210.09
2023-04-16T01:51:31.332Z,100211.29
2023-04-16T01:54:02.321Z,100215.13
2023-04-16T01:56:32.968Z,100213.09
2023-04-16T01:59:03.615Z,100218.05
2023-04-16T02:01:39.230Z,100217.71
2023-04-16T02:04:10.613Z,100216.97
2023-04-16T02:06:41.988Z,100214.85
2023-04-16T02:09:12.796Z,100216.29
2023-04-16T02:11:43.609Z,100217.35
2023-04-16T02:14:14.391Z,100218.98
2023-04-16T02:16:45.725Z,100224.50
2023-04-16T02:19:26.840Z,100225.48
2023-04-16T02:21:57.625Z,100224.95
2023-04-16T02:24:28.430Z,100215.14
2023-04-16T02:26:59.688Z,100232.54
2023-04-16T02:29:31.906Z,100233.25
2023-04-16T02:32:09.121Z,100234.76
2023-04-16T02:34:40.377Z,100241.83
2023-04-16T02:37:11.326Z,100238.30
2023-04-16T02:39:43.137Z,100241.84
2023-04-16T02:42:14.197Z,100239.89
2023-04-16T02:44:44.953Z,100248.39
2023-04-16T02:47:15.747Z,100249.02
2023-04-16T02:49:46.330Z,100251.18
2023-04-16T02:52:17.067Z,100251.84
2023-04-16T02:54:47.834Z,100246.38
2023-04-16T02:57:18.478Z,100245.52
2023-04-16T02:59:49.152Z,100252.62
2023-04-16T03:02:19.843Z,100255.65
2023-04-16T03:04:50.547Z,100258.45
2023-04-16T03:07:21.212Z,100261.22
2023-04-16T03:09:51.849Z,100260.27
2023-04-16T03:12:22.479Z,100263.24
2023-04-16T03:14:54.473Z,100264.67
2023-04-16T03:17:25.315Z,100268.53
2023-04-16T03:19:55.976Z,100269.01
2023-04-16T03:22:27.026Z,100273.98
2023-04-16T03:24:57.867Z,100277.48
2023-04-16T03:27:28.602Z,100281.48
2023-04-16T03:29:59.315Z,100284.31
2023-04-16T03:32:30.722Z,100286.67
2023-04-16T03:35:01.423Z,100288.45
2023-04-16T03:37:32.222Z,100292.16
2023-04-16T03:40:05.084Z,100291.98
2023-04-16T03:42:36.120Z,100289.52
2023-04-16T03:45:09.528Z,100291.98
2023-04-16T03:47:40.635Z,100294.17
2023-04-16T03:50:13.328Z,100295.04
2023-04-16T03:52:44.946Z,100297.36
2023-04-16T03:55:16.503Z,100299.17
2023-04-16T03:57:47.192Z,100300.02
2023-04-16T04:00:19.853Z,100309.93
2023-04-16T04:03:02.279Z,100312.41
2023-04-16T04:05:36.886Z,100311.17
2023-04-16T04:08:08.877Z,100317.85
2023-04-16T04:10:39.998Z,100324.92
2023-04-16T04:13:10.968Z,100324.80
2023-04-16T04:15:41.746Z,100330.16
2023-04-16T04:18:12.525Z,100330.83
2023-04-16T04:20:43.656Z,100330.25
2023-04-16T04:23:18.600Z,100330.77
2023-04-16T04:25:49.927Z,100331.11
2023-04-16T04:28:20.821Z,100329.46
2023-04-16T04:30:52.016Z,100332.95
2023-04-16T04:33:23.028Z,100335.54
2023-04-16T04:35:54.413Z,100337.98
2023-04-16T04:38:25.673Z,100334.89
2023-04-16T04:40:56.873Z,100339.66
2023-04-16T04:43:27.913Z,100336.35
2023-04-16T04:45:58.673Z,100342.45
2023-04-16T04:48:31.070Z,100341.36
2023-04-16T04:51:05.184Z,100341.02
2023-04-16T04:53:36.455Z,100346.86
2023-04-16T04:56:12.825Z,100347.66
2023-04-16T04:58:44.608Z,100352.81
2023-04-16T05:01:16.041Z,100349.30
2023-04-16T05:03:47.178Z,100358.44
2023-04-16T05:06:19.557Z,100356.61
2023-04-16T05:08:50.166Z,100360.56
2023-04-16T05:11:21.097Z,100366.38
2023-04-16T05:13:52.176Z,100370.61
2023-04-16T05:16:22.939Z,100367.55
2023-04-16T05:18:53.701Z,100372.58
2023-04-16T05:21:24.348Z,100372.86
2023-04-16T05:23:55.086Z,100375.62
2023-04-16T05:26:25.691Z,100381.80
2023-04-16T05:28:56.298Z,100382.58
2023-04-16T05:31:27.008Z,100384.46
2023-04-16T05:33:58.284Z,100385.96
2023-04-16T05:36:29.021Z,100395.16
2023-04-16T05:38:59.777Z,100396.84
2023-04-16T05:41:30.581Z,100401.82
2023-04-16T05:44:01.240Z,100399.20
2023-04-16T05:46:32.089Z,100402.68
2023-04-16T05:49:02.761Z,100405.96
2023-04-16T05:51:33.730Z,100410.42
2023-04-16T05:54:05.107Z,100420.75
2023-04-16T05:56:46.365Z,100417.73
2023-04-16T05:59:17.044Z,100412.80
2023-04-16T06:01:47.870Z,100414.11
2023-04-16T06:04:18.672Z,100415.08
2023-04-16T06:06:49.324Z,100420.14
2023-04-16T06:09:20.023Z,100425.88
2023-04-16T06:11:50.924Z,100427.35
2023-04-16T06:14:22.014Z,100427.20
2023-04-16T06:16:52.821Z,100426.98
2023-04-16T06:19:23.612Z,100428.12
2023-04-16T06:21:54.601Z,100429.35
2023-04-16T06:24:25.718Z,100425.06
2023-04-16T06:26:57.490Z,100424.07
2023-04-16T06:29:37.349Z,100429.05
2023-04-16T06:32:12.379Z,100432.61
2023-04-16T06:34:42.990Z,100434.23
2023-04-16T06:37:13.646Z,100436.13
2023-04-16T06:39:44.389Z,100436.23
2023-04-16T06:42:18.811Z,100437.05
2023-04-16T06:44:49.894Z,100437.15
2023-04-16T06:47:21.202Z,100432.69
2023-04-16T06:49:52.153Z,100434.39
2023-04-16T06:52:22.834Z,100430.52
2023-04-16T06:54:53.615Z,100433.17
2023-04-16T06:57:24.361Z,100435.61
2023-04-16T06:59:55.036Z,100431.55
2023-04-16T07:02:26.916Z,100430.48
2023-04-16T07:04:57.705Z,100435.23
2023-04-16T07:07:28.536Z,100433.73
2023-04-16T07:10:00.175Z,100437.34
2023-04-16T07:12:31.558Z,100436.53
2023-04-16T07:15:02.252Z,100434.13
2023-04-16T07:17:32.985Z,100434.83
2023-04-16T07:20:03.909Z,100438.20
2023-04-16T07:22:34.625Z,100439.36
2023-04-16T07:25:06.012Z,100438.02
2023-04-16T07:27:36.653Z,100444.39
2023-04-16T07:30:09.344Z,100446.84
2023-04-16T07:32:40.426Z,100446.23
2023-04-16T07:35:12.104Z,100449.14
2023-04-16T07:37:42.709Z,100451.56
2023-04-16T07:40:14.868Z,100450.67
2023-04-16T07:42:45.887Z,100450.97
2023-04-16T07:45:16.818Z,100453.33
2023-04-16T07:47:47.787Z,100454.38
2023-04-16T07:50:19.493Z,100455.13
2023-04-16T07:52:50.447Z,100463.54
2023-04-16T07:55:21.134Z,100461.31
2023-04-16T07:57:52.353Z,100458.55
2023-04-16T08:00:23.554Z,100461.98
2023-04-16T08:02:54.917Z,100462.56
2023-04-16T08:05:25.932Z,100462.17
2023-04-16T08:07:56.932Z,100465.41
2023-04-16T08:10:27.850Z,100463.15
2023-04-16T08:12:58.585Z,100463.83
2023-04-16T08:15:29.470Z,100466.79
2023-04-16T08:18:00.662Z,100466.34
2023-04-16T08:20:31.509Z,100470.38
2023-04-16T08:23:02.160Z,100467.13
2023-04-16T08:25:33.051Z,100472.16
2023-04-16T08:28:03.691Z,100473.70
2023-04-16T08:30:34.574Z,100480.23
2023-04-16T08:33:05.591Z,100482.27
2023-04-16T08:35:36.448Z,100482.77
2023-04-16T08:38:07.676Z,100485.42
2023-04-16T08:40:41.457Z,100485.16
2023-04-16T08:43:14.410Z,100489.02
2023-04-16T08:45:45.270Z,100484.69
2023-04-16T08:48:16.318Z,100484.41
2023-04-16T08:50:47.824Z,100483.92
2023-04-16T08:53:24.113Z,100485.58
2023-04-16T08:55:57.180Z,100486.89
2023-04-16T08:58:31.887Z,100488.46
2023-04-16T09:01:03.957Z,100485.52
2023-04-16T09:03:36.635Z,100492.55
2023-04-16T09:06:10.855Z,100492.08
2023-04-16T09:08:42.077Z,100489.03
2023-04-16T09:11:13.392Z,100491.95
2023-04-16T09:13:44.115Z,100494.69
2023-04-16T09:16:16.030Z,100496.01
2023-04-16T09:18:47.929Z,100500.44
2023-04-16T09:21:18.673Z,100497.67
2023-04-16T09:23:49.936Z,100500.38
2023-04-16T09:26:21.818Z,100500.00
2023-04-16T09:28:52.474Z,100502.63
2023-04-16T09:31:23.387Z,100509.98
2023-04-16T09:34:13.768Z,100514.57
2023-04-16T09:36:42.924Z,100512.86
2023-04-16T09:39:21.158Z,100513.45
2023-04-16T09:41:56.210Z,100514.08
2023-04-16T09:44:38.159Z,100513.67
2023-04-16T09:47:10.843Z,100514.16
2023-04-16T09:49:46.939Z,100516.41
2023-04-16T09:52:19.397Z,100513.30
2023-04-16T09:54:49.136Z,100516.33
2023-04-16T09:57:23.683Z,100521.16
2023-04-16T09:59:58.498Z,100521.72
2023-04-16T10:02:31.810Z,100525.48
2023-04-16T10:05:04.349Z,100522.61
2023-04-16T10:07:37.162Z,100521.24
2023-04-16T10:10:09.848Z,100524.73
2023-04-16T10:12:40.764Z,100521.09
2023-04-16T10:15:12.667Z,100523.04
2023-04-16T10:17:44.229Z,100523.31
2023-04-16T10:20:17.154Z,100524.50
2023-04-16T10:22:49.395Z,100522.70
2023-04-16T10:25:21.596Z,100529.20
2023-04-16T10:27:52.882Z,100528.79
2023-04-16T10:30:24.524Z,100526.95
2023-04-16T10:32:56.704Z,100525.23
2023-04-16T10:35:28.415Z,100528.32
2023-04-16T10:38:20.553Z,100534.02
2023-04-16T10:40:52.072Z,100531.59
2023-04-16T10:43:22.958Z,100529.58
2023-04-16T10:45:54.997Z,100527.91
2023-04-16T10:48:31.022Z,100529.85
2023-04-16T10:51:09.519Z,100527.02
2023-04-16T10:53:40.397Z,100531.33
2023-04-16T10:56:15.456Z,100534.32
2023-04-16T10:58:46.077Z,100534.33
2023-04-16T11:01:18.897Z,100536.33
2023-04-16T11:03:50.684Z,100535.15
2023-04-16T11:06:27.753Z,100535.38
2023-04-16T11:08:58.500Z,100534.80
2023-04-16T11:11:39.200Z,100534.16
2023-04-16T11:14:12.081Z,100533.02
2023-04-16T11:16:44.894Z,100534.58
2023-04-16T11:19:20.010Z,100532.50
2023-04-16T11:21:52.147Z,100533.70
2023-04-16T11:24:24.632Z,100532.55
2023-04-16T11:26:56.913Z,100534.61
2023-04-16T11:29:27.880Z,100535.66
2023-04-16T11:31:58.578Z,100532.68
2023-04-16T11:34:29.414Z,100532.25
2023-04-16T11:37:00.312Z,100528.73
2023-04-16T11:39:31.310Z,100533.23
2023-04-16T11:42:01.965Z,100533.08
2023-04-16T11:44:32.737Z,100532.83
2023-04-16T11:47:08.402Z,100532.56
2023-04-16T11:49:39.081Z,100531.31
2023-04-16T11:52:10.061Z,100525.77
2023-04-16T11:54:41.275Z,100529.89
2023-04-16T11:57:12.634Z,100534.31
2023-04-16T12:00:02.121Z,100528.86
2023-04-16T12:02:55.168Z,100521.77
2023-04-16T12:05:35.019Z,100527.60
2023-04-16T12:08:07.900Z,100524.80
2023-04-16T12:10:53.438Z,100526.61
2023-04-16T12:13:24.069Z,100524.16
2023-04-16T12:15:55.958Z,100522.40
2023-04-16T12:18:27.389Z,100524.66
2023-04-16T12:20:58.263Z,100528.04
2023-04-16T12:23:30.859Z,100524.52
2023-04-16T12:26:10.613Z,100525.86
2023-04-16T12:28:42.075Z,100525.77
2023-04-16T12:31:12.734Z,100527.48
2023-04-16T12:33:43.442Z,100527.54
2023-04-16T12:36:24.626Z,100530.05
2023-04-16T12:38:55.352Z,100531.83
2023-04-16T12:41:26.342Z,100530.09
2023-04-16T12:44:06.728Z,100530.88
2023-04-16T12:46:38.521Z,100530.77
2023-04-16T12:49:10.460Z,100520.54
2023-04-16T12:51:42.226Z,100522.89
2023-04-16T12:54:12.998Z,100517.89
2023-04-16T12:56:44.152Z,100520.55
2023-04-16T12:59:14.858Z,100521.39
2023-04-16T13:01:45.831Z,100520.85
2023-04-16T13:04:16.589Z,100519.45
2023-04-16T13:06:47.506Z,100521.21
2023-04-16T13:09:20.289Z,100528.83
2023-04-16T13:11:51.138Z,100527.05
2023-04-16T13:14:21.790Z,100525.91
2023-04-16T13:16:52.569Z,100523.20
2023-04-16T13:19:23.226Z,100526.95
2023-04-16T13:21:54.198Z,100533.03
2023-04-16T13:24:25.828Z,100531.71
2023-04-16T13:26:57.266Z,100530.97
2023-04-16T13:29:28.530Z,100531.14
2023-04-16T13:31:59.389Z,100531.21
2023-04-16T13:34:30.479Z,100532.85
2023-04-16T13:37:01.354Z,100536.29
2023-04-16T13:39:32.256Z,100539.64
2023-04-16T13:42:03.243Z,100534.15
2023-04-16T13:44:33.894Z,100539.54
2023-04-16T13:47:04.961Z,100535.44
2023-04-16T13:49:36.368Z,100536.08
2023-04-16T13:52:07.579Z,100539.33
2023-04-16T13:54:38.352Z,100545.09
2023-04-16T13:57:09.240Z,100546.88
2023-04-16T13:59:39.985Z,100546.33
2023-04-16T14:02:11.466Z,100549.73
2023-04-16T14:04:42.685Z,100552.36
2023-04-16T14:07:13.469Z,100552.63
2023-04-16T14:09:44.525Z,100552.16
2023-04-16T14:12:15.148Z,100551.66
2023-04-16T14:14:46.082Z,100552.73
2023-04-16T14:17:18.020Z,100553.79
2023-04-16T14:19:51.947Z,100561.55
2023-04-16T14:22:22.717Z,100562.67
2023-04-16T14:24:53.379Z,100560.50
2023-04-16T14:27:24.051Z,100562.48
2023-04-16T14:29:54.792Z,100562.53
2023-04-16T14:32:25.576Z,100564.21
2023-04-16T14:34:56.543Z,100562.67
2023-04-16T14:37:28.021Z,100563.52
2023-04-16T14:39:58.836Z,100564.89
2023-04-16T14:42:29.547Z,100566.21
2023-04-16T14:45:00.435Z,100568.27
2023-04-16T14:47:31.109Z,100569.83
2023-04-16T14:50:02.042Z,100568.35
2023-04-16T14:52:33.755Z,100573.35
2023-04-16T14:55:05.498Z,100576.31
2023-04-16T14:57:36.676Z,100577.23
2023-04-16T15:00:10.298Z,100577.05
2023-04-16T15:02:41.507Z,100577.16
2023-04-16T15:05:12.965Z,100579.48
2023-04-16T15:07:43.561Z,100582.13
2023-04-16T15:10:17.354Z,100581.36
2023-04-16T15:12:47.983Z,100578.88
2023-04-16T15:15:18.652Z,100588.27
2023-04-16T15:17:50.525Z,100590.20
2023-04-16T15:20:21.735Z,100594.69
2023-04-16T15:22:52.400Z,100597.48
2023-04-16T15:25:23.608Z,100597.94
2023-04-16T15:27:54.486Z,100596.79
2023-04-16T15:30:25.726Z,100600.54
2023-04-16T15:32:56.444Z,100600.33
2023-04-16T15:35:27.588Z,100602.10
2023-04-16T15:37:58.524Z,100598.56
2023-04-16T15:40:29.389Z,100601.50
2023-04-16T15:43:00.051Z,100604.09
2023-04-16T15:45:31.862Z,100604.14
2023-04-16T15:48:05.463Z,100606.29
2023-04-16T15:50:37.662Z,100604.72
2023-04-16T15:53:10.078Z,100605.61
2023-04-16T15:55:39.147Z,100607.75
2023-04-16T15:58:09.940Z,100613.17
2023-04-16T16:00:40.666Z,100616.92
2023-04-16T16:03:12.107Z,100620.67
2023-04-16T16:05:43.097Z,100622.98
2023-04-16T16:08:13.948Z,100627.66
2023-04-16T16:10:44.650Z,100627.20
2023-04-16T16:13:18.208Z,100630.69
2023-04-16T16:15:50.708Z,100637.77
2023-04-16T16:18:22.299Z,100637.09
2023-04-16T16:20:56.925Z,100643.90
2023-04-16T16:23:27.764Z,100647.75
2023-04-16T16:25:58.341Z,100650.36
2023-04-16T16:28:29.145Z,100651.65
2023-04-16T16:31:01.447Z,100656.05
2023-04-16T16:33:32.214Z,100660.81
2023-04-16T16:36:03.180Z,100663.09
2023-04-16T16:38:34.436Z,100662.56
2023-04-16T16:41:05.134Z,100663.79
2023-04-16T16:43:35.867Z,100666.64
2023-04-16T16:46:07.411Z,100668.71
2023-04-16T16:48:38.266Z,100671.16
2023-04-16T16:51:12.176Z,100670.39
2023-04-16T16:53:43.028Z,100674.16
2023-04-16T16:56:13.811Z,100676.76
2023-04-16T16:58:44.744Z,100679.05
2023-04-16T17:01:15.581Z,100680.41
2023-04-16T17:03:46.937Z,100676.89
2023-04-16T17:06:18.180Z,100683.55
2023-04-16T17:08:49.422Z,100686.13
2023-04-16T17:11:20.653Z,100686.59
2023-04-16T17:13:51.673Z,100688.67
2023-04-16T17:16:24.148Z,100689.98
2023-04-16T17:18:55.407Z,100680.24
2023-04-16T17:21:26.349Z,100692.98
2023-04-16T17:23:58.435Z,100694.77
2023-04-16T17:26:29.119Z,100697.20
2023-04-16T17:28:59.992Z,100702.04
2023-04-16T17:31:31.182Z,100704.98
2023-04-16T17:34:04.914Z,100706.15
2023-04-16T17:36:35.715Z,100707.45
2023-04-16T17:39:06.763Z,100712.38
2023-04-16T17:41:37.414Z,100711.54
2023-04-16T17:44:09.901Z,100712.52
2023-04-16T17:46:42.314Z,100717.70
2023-04-16T17:49:13.558Z,100717.67
2023-04-16T17:51:44.678Z,100722.48
2023-04-16T17:54:15.716Z,100722.59
2023-04-16T17:56:46.803Z,100721.33
2023-04-16T17:59:17.549Z,100728.25
2023-04-16T18:01:49.775Z,100725.55
2023-04-16T18:04:20.699Z,100732.67
2023-04-16T18:06:51.543Z,100728.77
2023-04-16T18:09:22.328Z,100731.52
2023-04-16T18:11:52.960Z,100735.50
2023-04-16T18:14:23.638Z,100740.58
2023-04-16T18:16:54.297Z,100741.85
2023-04-16T18:19:25.096Z,100744.59
2023-04-16T18:21:55.812Z,100743.92
2023-04-16T18:24:26.597Z,100746.80
2023-04-16T18:26:57.760Z,100747.98
2023-04-16T18:29:28.689Z,100753.94
2023-04-16T18:32:00.323Z,100756.44
2023-04-16T18:34:32.772Z,100759.55
2023-04-16T18:37:04.442Z,100754.83
2023-04-16T18:39:36.742Z,100764.52
2023-04-16T18:42:07.930Z,100766.60
2023-04-16T18:44:38.660Z,100768.55
2023-04-16T18:47:09.350Z,100771.67
2023-04-16T18:49:40.174Z,100780.60
2023-04-16T18:52:10.975Z,100776.02
2023-04-16T18:54:43.491Z,100778.60
2023-04-16T18:57:12.542Z,100780.70
2023-04-16T18:59:43.457Z,100779.49
2023-04-16T19:02:14.163Z,100778.34
2023-04-16T19:04:45.020Z,100782.33
2023-04-16T19:07:15.690Z,100783.87
2023-04-16T19:09:46.413Z,100781.61
2023-04-16T19:12:17.053Z,100786.46
2023-04-16T19:14:47.820Z,100787.00
2023-04-16T19:17:18.607Z,100789.16
2023-04-16T19:19:49.491Z,100789.47
2023-04-16T19:22:20.291Z,100792.52
2023-04-16T19:24:51.086Z,100794.64
2023-04-16T19:27:21.762Z,100795.98
2023-04-16T19:29:52.880Z,100799.03
2023-04-16T19:32:23.949Z,100795.97
2023-04-16T19:34:54.564Z,100794.64
2023-04-16T19:37:25.361Z,100797.89
2023-04-16T19:39:56.304Z,100797.11
2023-04-16T19:42:27.034Z,100797.39
2023-04-16T19:44:57.770Z,100799.05
2023-04-16T19:47:28.505Z,100799.23
2023-04-16T19:49:59.424Z,100800.83
2023-04-16T19:52:30.103Z,100804.11
2023-04-16T19:55:00.942Z,100803.51
2023-04-16T19:57:31.664Z,100801.23
2023-04-16T20:00:02.548Z,100800.45
2023-04-16T20:02:53.412Z,100799.72
2023-04-16T20:05:26.105Z,100801.08
2023-04-16T20:07:57.368Z,100803.30
2023-04-16T20:10:28.256Z,100806.98
2023-04-16T20:12:58.872Z,100809.89
2023-04-16T20:15:29.500Z,100811.64
2023-04-16T20:18:00.711Z,100809.70
2023-04-16T20:20:31.482Z,100810.11
2023-04-16T20:23:02.055Z,100810.23
2023-04-16T20:25:32.865Z,100810.41
2023-04-16T20:28:03.598Z,100805.73
2023-04-16T20:30:38.869Z,100803.62
2023-04-16T20:33:09.977Z,100808.11
2023-04-16T20:35:40.947Z,100805.63
2023-04-16T20:38:11.693Z,100803.20
2023-04-16T20:40:44.639Z,100804.19
2023-04-16T20:43:18.914Z,100807.54
2023-04-16T20:45:50.841Z,100807.85
2023-04-16T20:48:21.536Z,100812.20
2023-04-16T20:50:52.496Z,100810.84
2023-04-16T20:53:23.136Z,100811.44
2023-04-16T20:55:53.809Z,100814.66
2023-04-16T20:58:24.850Z,100816.79
2023-04-16T21:00:56.836Z,100817.77
2023-04-16T21:03:27.717Z,100814.98
2023-04-16T21:05:58.637Z,100816.39
2023-04-16T21:08:29.368Z,100819.60
2023-04-16T21:11:00.001Z,100824.48
2023-04-16T21:13:30.772Z,100824.91
2023-04-16T21:16:01.528Z,100824.70
2023-04-16T21:18:32.286Z,100824.77
2023-04-16T21:21:03.072Z,100825.86
2023-04-16T21:23:33.795Z,100826.42
2023-04-16T21:26:04.530Z,100827.91
2023-04-16T21:28:35.135Z,100825.88
2023-04-16T21:31:05.917Z,100827.93
2023-04-16T21:33:36.736Z,100827.90
2023-04-16T21:36:08.075Z,100829.16
2023-04-16T21:38:38.814Z,100825.14
2023-04-16T21:41:09.581Z,100828.52
2023-04-16T21:43:40.389Z,100824.84
2023-04-16T21:46:11.175Z,100825.73
2023-04-16T21:48:41.818Z,100827.27
2023-04-16T21:51:12.442Z,100827.99
2023-04-16T21:53:43.151Z,100831.95
2023-04-16T21:56:14.884Z,100823.79
2023-04-16T21:58:45.629Z,100829.75
2023-04-16T22:01:16.478Z,100828.46
2023-04-16T22:03:50.774Z,100826.81
2023-04-16T22:06:21.772Z,100828.02
2023-04-16T22:08:53.437Z,100828.39
2023-04-16T22:11:24.058Z,100823.74
2023-04-16T22:13:57.734Z,100826.07
2023-04-16T22:16:28.726Z,100822.57
2023-04-16T22:19:00.241Z,100825.12
2023-04-16T22:21:31.394Z,100828.61
2023-04-16T22:24:02.756Z,100827.93
2023-04-16T22:26:33.378Z,100828.72
2023-04-16T22:29:04.100Z,100831.80
2023-04-16T22:31:34.882Z,100828.33
2023-04-16T22:34:05.806Z,100826.84
2023-04-16T22:36:36.556Z,100827.61
2023-04-16T22:39:08.782Z,100830.19
2023-04-16T22:41:39.711Z,100827.62
2023-04-16T22:44:10.585Z,100828.91
2023-04-16T22:46:41.514Z,100828.70
2023-04-16T22:49:12.443Z,100825.39
2023-04-16T22:51:43.515Z,100827.75
2023-04-16T22:54:14.364Z,100822.23
2023-04-16T22:56:45.083Z,100821.48
2023-04-16T22:59:15.926Z,100823.91
2023-04-16T23:01:46.690Z,100827.55
2023-04-16T23:04:17.647Z,100826.38
2023-04-16T23:06:48.528Z,100823.66
2023-04-16T23:09:20.563Z,100826.91
2023-04-16T23:11:51.326Z,100824.20
2023-04-16T23:14:22.388Z,100822.98
2023-04-16T23:16:53.030Z,100825.83
2023-04-16T23:19:23.756Z,100822.55
2023-04-16T23:21:54.388Z,100826.04
2023-04-16T23:24:25.120Z,100825.94
2023-04-16T23:26:56.097Z,100825.29
2023-04-16T23:29:26.771Z,100821.59
2023-04-16T23:31:58.384Z,100825.98
2023-04-16T23:34:29.070Z,100827.41
2023-04-16T23:36:59.788Z,100832.86
2023-04-16T23:39:30.591Z,100832.64
2023-04-16T23:42:01.948Z,100830.21
2023-04-16T23:44:32.664Z,100827.91
2023-04-16T23:47:03.500Z,100827.65
2023-04-16T23:49:34.582Z,100827.27
2023-04-16T23:52:05.893Z,100826.31
2023-04-16T23:54:36.597Z,100823.90
2023-04-16T23:57:07.301Z,100823.14
2023-04-16T23:59:38.030Z,100824.56
